createdAt,value
2022-12-19T00:00:13.973Z,102797.22
2022-12-19T00:02:42.724Z,102781.53
2022-12-19T00:05:11.038Z,102792.69
2022-12-19T00:07:38.446Z,102786.50
2022-12-19T00:10:06.742Z,102793.13
2022-12-19T00:12:34.129Z,102789.81
2022-12-19T00:15:05.774Z,102787.53
2022-12-19T00:17:33.544Z,102778.25
2022-12-19T00:20:05.158Z,102777.63
2022-12-19T00:22:32.504Z,102769.81
2022-12-19T00:24:59.892Z,102771.88
2022-12-19T00:27:27.337Z,102767.34
2022-12-19T00:29:54.734Z,102775.38
2022-12-19T00:32:22.066Z,102786.13
2022-12-19T00:34:49.516Z,102778.69
2022-12-19T00:37:17.222Z,102779.28
2022-12-19T00:39:44.659Z,102782.19
2022-12-19T00:42:14.459Z,102787.94
2022-12-19T00:44:42.354Z,102786.50
2022-12-19T00:47:09.883Z,102776.38
2022-12-19T00:49:38.282Z,102795.53
2022-12-19T00:52:06.394Z,102794.28
2022-12-19T00:54:33.883Z,102779.47
2022-12-19T00:57:01.878Z,102791.00
2022-12-19T00:59:29.304Z,102788.56
2022-12-19T01:01:57.699Z,102776.19
2022-12-19T01:04:29.438Z,102787.72
2022-12-19T01:07:02.627Z,102783.84
2022-12-19T01:09:34.847Z,102777.22
2022-12-19T01:12:24.446Z,102786.09
2022-12-19T01:15:05.013Z,102787.53
2022-12-19T01:17:44.057Z,102773.88
2022-12-19T01:20:16.676Z,102779.25
2022-12-19T01:22:45.580Z,102789.81
2022-12-19T01:25:14.873Z,102784.81
2022-12-19T01:27:42.507Z,102793.31
2022-12-19T01:30:10.742Z,102782.78
2022-12-19T01:32:39.121Z,102778.03
2022-12-19T01:35:06.873Z,102796.63
2022-12-19T01:37:38.168Z,102802.38
2022-12-19T01:40:06.260Z,102793.50
2022-12-19T01:42:36.722Z,102792.47
2022-12-19T01:45:05.510Z,102791.88
2022-12-19T01:47:37.858Z,102797.84
2022-12-19T01:50:05.665Z,102799.91
2022-12-19T01:52:33.351Z,102807.91
2022-12-19T01:55:01.299Z,102810.59
2022-12-19T01:57:30.086Z,102821.75
2022-12-19T01:59:59.559Z,102819.03
2022-12-19T02:02:35.446Z,102810.97
2022-12-19T02:05:05.102Z,102817.44
2022-12-19T02:07:33.978Z,102823.44
2022-12-19T02:10:02.511Z,102824.47
2022-12-19T02:12:39.989Z,102822.19
2022-12-19T02:15:10.756Z,102823.66
2022-12-19T02:18:04.015Z,102821.19
2022-12-19T02:20:50.036Z,102816.03
2022-12-19T02:23:57.575Z,102807.97
2022-12-19T02:26:40.478Z,102808.41
2022-12-19T02:29:40.611Z,102805.09
2022-12-19T02:32:27.536Z,102780.13
2022-12-19T02:35:04.791Z,102790.44
2022-12-19T02:37:50.225Z,102766.53
2022-12-19T02:40:33.224Z,102775.81
2022-12-19T02:43:03.719Z,102780.34
2022-12-19T02:45:35.695Z,102781.78
2022-12-19T02:48:08.787Z,102789.19
2022-12-19T02:50:42.336Z,102787.13
2022-12-19T02:53:16.262Z,102784.66
2022-12-19T02:56:09.346Z,102778.66
2022-12-19T02:58:44.492Z,102779.72
2022-12-19T03:01:33.271Z,102770.03
2022-12-19T03:04:20.552Z,102787.75
2022-12-19T03:07:02.299Z,102795.19
2022-12-19T03:09:46.385Z,102773.09
2022-12-19T03:12:21.566Z,102777.25
2022-12-19T03:14:50.079Z,102772.09
2022-12-19T03:17:18.734Z,102771.88
2022-12-19T03:19:48.835Z,102781.56
2022-12-19T03:22:16.358Z,102784.47
2022-12-19T03:24:44.407Z,102776.41
2022-12-19T03:27:19.104Z,102790.84
2022-12-19T03:29:54.056Z,102790.00
2022-12-19T03:32:23.408Z,102777.44
2022-12-19T03:34:57.199Z,102790.44
2022-12-19T03:37:29.408Z,102783.03
2022-12-19T03:40:01.199Z,102755.19
2022-12-19T03:42:50.273Z,102768.38
2022-12-19T03:45:26.547Z,102769.19
2022-12-19T03:48:04.076Z,102770.00
2022-12-19T03:50:43.194Z,102770.44
2022-12-19T03:53:20.788Z,102768.56
2022-12-19T03:55:56.110Z,102771.06
2022-12-19T03:58:46.878Z,102763.00
2022-12-19T04:01:14.812Z,102765.06
2022-12-19T04:03:42.522Z,102761.34
2022-12-19T04:06:13.015Z,102751.88
2022-12-19T04:08:41.832Z,102775.38
2022-12-19T04:11:15.685Z,102756.59
2022-12-19T04:13:49.552Z,102764.03
2022-12-19T04:16:40.113Z,102760.34
2022-12-19T04:19:22.027Z,102760.75
2022-12-19T04:22:02.565Z,102774.16
2022-12-19T04:24:37.930Z,102780.13
2022-12-19T04:27:08.507Z,102770.84
2022-12-19T04:29:37.965Z,102784.63
2022-12-19T04:32:07.293Z,102766.69
2022-12-19T04:34:42.581Z,102765.88
2022-12-19T04:37:11.386Z,102767.31
2022-12-19T04:39:40.901Z,102775.38
2022-12-19T04:42:08.365Z,102761.34
2022-12-19T04:44:35.730Z,102769.41
2022-12-19T04:47:03.466Z,102761.34
2022-12-19T04:49:30.854Z,102765.69
2022-12-19T04:51:58.332Z,102768.16
2022-12-19T04:54:26.224Z,102764.25
2022-12-19T04:56:54.543Z,102763.41
2022-12-19T04:59:21.905Z,102765.09
2022-12-19T05:01:49.465Z,102759.47
2022-12-19T05:04:16.925Z,102757.41
2022-12-19T05:06:44.382Z,102768.16
2022-12-19T05:09:14.428Z,102762.59
2022-12-19T05:11:41.917Z,102779.91
2022-12-19T05:14:09.661Z,102785.25
2022-12-19T05:16:37.127Z,102786.75
2022-12-19T05:19:04.730Z,102783.41
2022-12-19T05:21:32.163Z,102783.63
2022-12-19T05:23:59.856Z,102787.13
2022-12-19T05:26:27.996Z,102771.66
2022-12-19T05:28:55.320Z,102764.22
2022-12-19T05:31:22.794Z,102753.72
2022-12-19T05:33:50.630Z,102744.84
2022-12-19T05:36:18.706Z,102742.34
2022-12-19T05:38:46.291Z,102735.16
2022-12-19T05:41:18.233Z,102746.50
2022-12-19T05:43:49.797Z,102761.53
2022-12-19T05:46:17.278Z,102773.28
2022-12-19T05:48:44.733Z,102762.97
2022-12-19T05:51:12.654Z,102779.91
2022-12-19T05:53:40.778Z,102779.28
2022-12-19T05:56:11.133Z,102774.72
2022-12-19T05:58:39.865Z,102783.81
2022-12-19T06:01:09.883Z,102779.06
2022-12-19T06:03:38.923Z,102791.63
2022-12-19T06:06:09.576Z,102792.03
2022-12-19T06:08:37.437Z,102792.69
2022-12-19T06:11:06.804Z,102783.78
2022-12-19T06:13:35.568Z,102782.56
2022-12-19T06:16:08.713Z,102785.25
2022-12-19T06:18:40.456Z,102799.28
2022-12-19T06:21:18.611Z,102801.97
2022-12-19T06:23:46.832Z,102795.16
2022-12-19T06:26:19.874Z,102810.44
2022-12-19T06:28:49.073Z,102809.59
2022-12-19T06:31:17.699Z,102791.78
2022-12-19T06:33:45.157Z,102792.22
2022-12-19T06:36:18.828Z,102792.06
2022-12-19T06:38:47.682Z,102797.81
2022-12-19T06:41:34.292Z,102789.16
2022-12-19T06:44:04.663Z,102805.06
2022-12-19T06:46:33.775Z,102793.47
2022-12-19T06:49:02.201Z,102793.91
2022-12-19T06:51:29.998Z,102787.69
2022-12-19T06:53:57.656Z,102785.84
2022-12-19T06:56:25.335Z,102791.19
2022-12-19T06:58:52.816Z,102783.16
2022-12-19T07:01:41.735Z,102799.00
2022-12-19T07:04:12.256Z,102805.22
2022-12-19T07:06:42.348Z,102810.53
2022-12-19T07:09:12.146Z,102801.06
2022-12-19T07:11:39.759Z,102810.31
2022-12-19T07:14:07.160Z,102817.38
2022-12-19T07:16:37.925Z,102820.88
2022-12-19T07:19:07.204Z,102822.53
2022-12-19T07:21:36.947Z,102808.72
2022-12-19T07:24:07.891Z,102806.59
2022-12-19T07:26:36.812Z,102803.91
2022-12-19T07:29:05.406Z,102820.03
2022-12-19T07:31:34.424Z,102806.41
2022-12-19T07:34:01.841Z,102812.59
2022-12-19T07:36:29.279Z,102802.72
2022-12-19T07:38:56.698Z,102798.56
2022-12-19T07:41:24.135Z,102799.41
2022-12-19T07:43:51.509Z,102805.75
2022-12-19T07:46:19.034Z,102804.50
2022-12-19T07:48:46.473Z,102803.50
2022-12-19T07:51:13.873Z,102807.00
2022-12-19T07:53:41.245Z,102796.03
2022-12-19T07:56:08.783Z,102806.75
2022-12-19T07:58:36.475Z,102807.19
2022-12-19T08:01:03.990Z,102819.38
2022-12-19T08:03:31.372Z,102816.66
2022-12-19T08:06:04.249Z,102818.69
2022-12-19T08:08:31.808Z,102801.81
2022-12-19T08:11:17.544Z,102805.53
2022-12-19T08:13:46.988Z,102819.94
2022-12-19T08:16:15.233Z,102822.78
2022-12-19T08:18:42.961Z,102818.88
2022-12-19T08:21:11.106Z,102822.16
2022-12-19T08:23:41.401Z,102812.94
2022-12-19T08:26:14.293Z,102827.56
2022-12-19T08:28:42.340Z,102826.69
2022-12-19T08:31:13.336Z,102827.28
2022-12-19T08:33:42.954Z,102820.28
2022-12-19T08:36:12.995Z,102813.66
2022-12-19T08:38:40.648Z,102823.38
2022-12-19T08:41:08.594Z,102820.50
2022-12-19T08:43:36.000Z,102821.06
2022-12-19T08:46:04.189Z,102808.66
2022-12-19T08:48:33.100Z,102817.75
2022-12-19T08:51:08.591Z,102813.22
2022-12-19T08:53:39.527Z,102813.03
2022-12-19T08:56:18.500Z,102809.00
2022-12-19T08:58:46.511Z,102806.31
2022-12-19T09:01:19.276Z,102802.78
2022-12-19T09:04:19.938Z,102802.00
2022-12-19T09:06:35.927Z,102801.34
2022-12-19T09:09:04.590Z,102806.50
2022-12-19T09:11:32.241Z,102823.03
2022-12-19T09:13:59.777Z,102822.59
2022-12-19T09:16:28.649Z,102828.75
2022-12-19T09:18:58.793Z,102822.09
2022-12-19T09:21:29.226Z,102821.69
2022-12-19T09:24:07.050Z,102821.22
2022-12-19T09:26:38.538Z,102814.16
2022-12-19T09:29:12.573Z,102827.84
2022-12-19T09:31:47.558Z,102822.97
2022-12-19T09:34:17.372Z,102823.84
2022-12-19T09:36:44.776Z,102827.19
2022-12-19T09:39:12.636Z,102826.94
2022-12-19T09:42:01.526Z,102832.47
2022-12-19T09:45:02.323Z,102821.16
2022-12-19T09:47:31.818Z,102826.13
2022-12-19T09:50:00.837Z,102824.56
2022-12-19T09:52:42.356Z,102821.59
2022-12-19T09:55:22.759Z,102823.69
2022-12-19T09:58:12.636Z,102815.78
2022-12-19T10:00:49.272Z,102808.97
2022-12-19T10:03:40.369Z,102811.69
2022-12-19T10:07:11.921Z,102804.34
2022-12-19T10:11:38.193Z,102806.38
2022-12-19T10:12:43.159Z,102805.31
2022-12-19T10:15:14.306Z,102807.47
2022-12-19T10:18:05.592Z,102798.72
2022-12-19T10:20:37.299Z,102813.38
2022-12-19T10:23:42.242Z,102814.28
2022-12-19T10:26:35.178Z,102809.97
2022-12-19T10:29:18.811Z,102803.66
2022-12-19T10:31:56.015Z,102797.69
2022-12-19T10:34:41.199Z,102800.38
2022-12-19T10:37:35.156Z,102788.25
2022-12-19T10:40:32.059Z,102790.66
2022-12-19T10:43:32.134Z,102783.94
2022-12-19T10:46:09.936Z,102784.69
2022-12-19T10:48:37.345Z,102789.97
2022-12-19T10:51:06.397Z,102780.50
2022-12-19T10:53:34.424Z,102771.88
2022-12-19T10:56:12.186Z,102772.22
2022-12-19T10:58:44.402Z,102771.59
2022-12-19T11:01:13.706Z,102771.78
2022-12-19T11:03:49.287Z,102766.72
2022-12-19T11:06:37.957Z,102755.72
2022-12-19T11:09:29.376Z,102762.75
2022-12-19T11:16:47.266Z,102752.75
2022-12-19T11:18:50.890Z,102759.13
2022-12-19T11:28:36.003Z,102754.38
2022-12-19T11:29:43.817Z,102750.22
2022-12-19T11:30:45.725Z,102738.22
2022-12-19T11:30:48.369Z,102738.75
2022-12-19T11:32:44.166Z,102729.44
2022-12-19T11:38:13.467Z,102724.72
2022-12-19T11:40:55.380Z,102715.19
2022-12-19T11:43:45.097Z,102707.13
2022-12-19T11:46:31.761Z,102708.44
2022-12-19T11:49:09.026Z,102702.47
2022-12-19T11:53:02.388Z,102704.09
2022-12-19T11:55:19.053Z,102700.72
2022-12-19T11:57:47.411Z,102701.53
2022-12-19T12:00:21.618Z,102695.38
2022-12-19T12:02:51.908Z,102697.38
2022-12-19T12:05:22.077Z,102692.81
2022-12-19T12:09:14.692Z,102700.00
2022-12-19T12:16:32.959Z,102695.56
2022-12-19T12:23:19.954Z,102693.44
2022-12-19T12:28:44.343Z,102685.97
2022-12-19T12:31:23.723Z,102685.72
2022-12-19T12:31:32.655Z,102683.88
2022-12-19T12:31:56.212Z,102663.09
2022-12-19T12:32:00.735Z,102672.59
2022-12-19T12:35:55.105Z,102667.22
2022-12-19T12:38:43.362Z,102670.09
2022-12-19T12:41:20.617Z,102668.34
2022-12-19T12:44:08.774Z,102659.44
2022-12-19T12:46:49.848Z,102655.53
2022-12-19T12:49:37.554Z,102653.19
2022-12-19T12:52:08.285Z,102660.03
2022-12-19T12:54:40.555Z,102647.25
2022-12-19T12:57:18.670Z,102658.16
2022-12-19T12:59:50.127Z,102652.06
2022-12-19T13:02:24.050Z,102648.44
2022-12-19T13:04:58.377Z,102650.88
2022-12-19T13:07:33.849Z,102647.63
2022-12-19T13:10:14.548Z,102643.28
2022-12-19T13:13:00.131Z,102641.84
2022-12-19T13:15:27.613Z,102648.63
2022-12-19T13:17:54.931Z,102649.38
2022-12-19T13:20:25.152Z,102645.63
2022-12-19T13:23:00.946Z,102647.13
2022-12-19T13:25:34.356Z,102643.28
2022-12-19T13:28:01.631Z,102642.44
2022-12-19T13:30:31.085Z,102635.84
2022-12-19T13:33:01.576Z,102638.34
2022-12-19T13:37:01.075Z,102632.84
2022-12-19T13:40:00.222Z,102632.25
2022-12-19T13:42:01.438Z,102637.03
2022-12-19T13:44:30.529Z,102641.97
2022-12-19T13:46:57.963Z,102632.94
2022-12-19T13:49:34.605Z,102641.03
2022-12-19T13:52:04.921Z,102643.41
2022-12-19T13:54:44.868Z,102643.84
2022-12-19T13:57:28.853Z,102647.03
2022-12-19T14:00:04.036Z,102640.91
2022-12-19T14:02:50.882Z,102638.31
2022-12-19T14:06:14.928Z,102635.66
2022-12-19T14:08:25.509Z,102638.22
2022-12-19T14:11:34.962Z,102638.91
2022-12-19T14:14:16.389Z,102635.66
2022-12-19T14:16:46.144Z,102646.69
2022-12-19T14:19:25.431Z,102642.56
2022-12-19T14:22:04.002Z,102644.81
2022-12-19T14:24:35.727Z,102639.28
2022-12-19T14:28:19.204Z,102631.28
2022-12-19T14:30:29.848Z,102634.47
2022-12-19T14:33:46.019Z,102634.47
2022-12-19T14:36:07.384Z,102631.28
2022-12-19T14:39:23.053Z,102638.69
2022-12-19T14:41:49.159Z,102640.56
2022-12-19T14:52:25.876Z,102642.09
2022-12-19T14:54:01.593Z,102639.97
2022-12-19T14:54:03.319Z,102645.13
2022-12-19T14:54:26.483Z,102645.13
2022-12-19T14:59:02.177Z,102643.03
2022-12-19T15:01:36.583Z,102644.31
2022-12-19T15:04:48.281Z,102640.78
2022-12-19T15:07:08.332Z,102648.63
2022-12-19T15:11:07.501Z,102640.66
2022-12-19T15:14:51.990Z,102634.56
2022-12-19T15:16:05.632Z,102639.84
2022-12-19T15:18:35.395Z,102642.66
2022-12-19T15:21:05.747Z,102642.28
2022-12-19T15:23:33.149Z,102637.81
2022-12-19T15:26:04.543Z,102645.31
2022-12-19T15:28:56.213Z,102640.84
2022-12-19T15:31:41.922Z,102649.41
2022-12-19T15:37:14.551Z,102648.66
2022-12-19T15:39:43.535Z,102646.47
2022-12-19T15:42:22.907Z,102645.97
2022-12-19T15:44:54.855Z,102650.78
2022-12-19T15:47:37.059Z,102643.78
2022-12-19T15:50:26.126Z,102640.72
2022-12-19T15:52:56.716Z,102639.91
2022-12-19T15:55:27.523Z,102639.06
2022-12-19T15:57:59.034Z,102626.44
2022-12-19T16:00:32.396Z,102623.03
2022-12-19T16:05:48.242Z,102628.47
2022-12-19T16:08:21.133Z,102631.56
2022-12-19T16:11:01.080Z,102627.53
2022-12-19T16:13:34.038Z,102633.78
2022-12-19T16:16:04.584Z,102634.34
2022-12-19T16:18:36.471Z,102634.56
2022-12-19T16:21:06.401Z,102636.81
2022-12-19T16:23:33.882Z,102632.91
2022-12-19T16:26:01.705Z,102634.66
2022-12-19T16:28:31.847Z,102629.66
2022-12-19T16:31:00.040Z,102638.78
2022-12-19T16:33:30.499Z,102632.59
2022-12-19T16:36:06.587Z,102629.88
2022-12-19T16:38:35.579Z,102628.22
2022-12-19T16:41:03.550Z,102628.00
2022-12-19T16:43:38.763Z,102631.72
2022-12-19T16:46:07.447Z,102624.25
2022-12-19T16:48:37.947Z,102628.00
2022-12-19T16:51:05.500Z,102638.44
2022-12-19T16:53:33.066Z,102635.16
2022-12-19T16:56:01.483Z,102627.09
2022-12-19T16:58:29.514Z,102619.69
2022-12-19T17:00:57.388Z,102626.00
2022-12-19T17:03:33.626Z,102637.69
2022-12-19T17:06:04.113Z,102625.09
2022-12-19T17:08:32.426Z,102618.50
2022-12-19T17:10:59.941Z,102624.38
2022-12-19T17:13:27.568Z,102635.97
2022-12-19T17:15:57.316Z,102630.91
2022-12-19T17:18:34.917Z,102631.16
2022-12-19T17:21:02.920Z,102628.47
2022-12-19T17:23:33.674Z,102633.47
2022-12-19T17:26:01.097Z,102633.72
2022-12-19T17:28:30.434Z,102637.22
2022-12-19T17:31:02.076Z,102640.16
2022-12-19T17:33:35.250Z,102638.13
2022-12-19T17:36:04.866Z,102648.09
2022-12-19T17:38:32.730Z,102640.47
2022-12-19T17:41:00.489Z,102641.13
2022-12-19T17:43:27.883Z,102643.25
2022-12-19T17:45:55.464Z,102646.38
2022-12-19T17:48:31.609Z,102647.88
2022-12-19T17:51:02.746Z,102653.34
2022-12-19T17:53:30.156Z,102640.03
2022-12-19T17:56:00.296Z,102643.78
2022-12-19T17:58:27.631Z,102646.72
2022-12-19T18:00:56.857Z,102641.31
2022-12-19T18:03:26.452Z,102640.66
2022-12-19T18:05:55.572Z,102627.53
2022-12-19T18:08:26.490Z,102632.72
2022-12-19T18:10:56.690Z,102633.16
2022-12-19T18:13:25.252Z,102633.59
2022-12-19T18:15:56.096Z,102634.41
2022-12-19T18:18:28.549Z,102628.00
2022-12-19T18:20:57.828Z,102637.50
2022-12-19T18:23:25.290Z,102635.16
2022-12-19T18:25:57.728Z,102634.22
2022-12-19T18:28:28.891Z,102633.00
2022-12-19T18:31:11.185Z,102641.19
2022-12-19T18:33:41.218Z,102644.16
2022-12-19T18:36:19.922Z,102635.72
2022-12-19T18:38:48.893Z,102637.97
2022-12-19T18:41:17.564Z,102638.34
2022-12-19T18:43:45.676Z,102640.22
2022-12-19T18:46:28.427Z,102636.09
2022-12-19T18:48:56.088Z,102640.06
2022-12-19T18:51:23.605Z,102632.59
2022-12-19T18:53:51.679Z,102631.09
2022-12-19T18:56:19.209Z,102631.69
2022-12-19T18:58:48.500Z,102621.38
2022-12-19T19:01:18.766Z,102615.66
2022-12-19T19:03:53.403Z,102624.94
2022-12-19T19:06:25.808Z,102623.88
2022-12-19T19:08:53.970Z,102624.69
2022-12-19T19:11:40.815Z,102621.81
2022-12-19T19:14:09.028Z,102622.00
2022-12-19T19:16:37.334Z,102618.06
2022-12-19T19:19:07.146Z,102625.53
2022-12-19T19:21:36.059Z,102630.03
2022-12-19T19:24:08.843Z,102626.28
2022-12-19T19:26:36.286Z,102623.34
2022-12-19T19:29:03.920Z,102624.03
2022-12-19T19:31:35.940Z,102616.88
2022-12-19T19:34:10.036Z,102617.44
2022-12-19T19:36:42.493Z,102609.75
2022-12-19T19:39:10.842Z,102612.13
2022-12-19T19:41:38.249Z,102609.34
2022-12-19T19:44:05.655Z,102610.03
2022-12-19T19:46:33.525Z,102602.09
2022-12-19T19:49:02.229Z,102602.72
2022-12-19T19:51:30.482Z,102608.22
2022-12-19T19:53:58.283Z,102605.97
2022-12-19T19:56:25.643Z,102594.00
2022-12-19T19:58:54.954Z,102604.91
2022-12-19T20:01:25.380Z,102607.03
2022-12-19T20:03:53.016Z,102601.06
2022-12-19T20:06:20.466Z,102593.34
2022-12-19T20:08:50.587Z,102600.16
2022-12-19T20:11:18.106Z,102596.41
2022-12-19T20:13:45.566Z,102600.59
2022-12-19T20:16:18.274Z,102601.41
2022-12-19T20:18:50.599Z,102598.72
2022-12-19T20:21:19.791Z,102591.69
2022-12-19T20:23:47.480Z,102592.50
2022-12-19T20:26:16.498Z,102582.34
2022-12-19T20:28:48.802Z,102594.75
2022-12-19T20:31:25.082Z,102592.06
2022-12-19T20:33:55.676Z,102589.50
2022-12-19T20:36:24.154Z,102580.81
2022-12-19T20:38:52.823Z,102583.88
2022-12-19T20:41:20.811Z,102586.91
2022-12-19T20:43:48.371Z,102588.56
2022-12-19T20:46:19.279Z,102587.50
2022-12-19T20:48:47.738Z,102584.56
2022-12-19T20:51:17.498Z,102586.00
2022-12-19T20:53:46.356Z,102584.81
2022-12-19T20:56:17.022Z,102579.19
2022-12-19T20:58:45.394Z,102578.84
2022-12-19T21:01:17.561Z,102571.22
2022-12-19T21:03:45.656Z,102581.19
2022-12-19T21:06:17.981Z,102573.91
2022-12-19T21:08:45.904Z,102571.34
2022-12-19T21:11:15.448Z,102572.06
2022-12-19T21:13:43.483Z,102563.38
2022-12-19T21:16:18.243Z,102570.66
2022-12-19T21:18:46.804Z,102579.81
2022-12-19T21:21:18.131Z,102577.09
2022-12-19T21:23:46.407Z,102573.47
2022-12-19T21:26:14.003Z,102573.00
2022-12-19T21:28:41.777Z,102560.34
2022-12-19T21:31:20.858Z,102563.25
2022-12-19T21:33:49.298Z,102563.75
2022-12-19T21:36:20.265Z,102570.91
2022-12-19T21:38:52.201Z,102564.44
2022-12-19T21:41:19.718Z,102568.09
2022-12-19T21:43:49.267Z,102572.91
2022-12-19T21:46:16.991Z,102576.28
2022-12-19T21:48:47.013Z,102575.84
2022-12-19T21:51:15.716Z,102564.44
2022-12-19T21:53:43.125Z,102569.72
2022-12-19T21:56:19.552Z,102566.81
2022-12-19T21:58:47.020Z,102562.25
2022-12-19T22:01:15.686Z,102565.50
2022-12-19T22:03:43.396Z,102558.94
2022-12-19T22:06:27.040Z,102558.25
2022-12-19T22:08:56.589Z,102558.38
2022-12-19T22:11:24.668Z,102560.81
2022-12-19T22:13:52.307Z,102567.03
2022-12-19T22:16:19.995Z,102560.00
2022-12-19T22:18:47.776Z,102557.19
2022-12-19T22:21:15.858Z,102555.91
2022-12-19T22:23:43.282Z,102547.22
2022-12-19T22:26:17.242Z,102564.44
2022-12-19T22:28:46.980Z,102560.13
2022-12-19T22:31:17.118Z,102546.88
2022-12-19T22:33:45.074Z,102543.00
2022-12-19T22:36:15.544Z,102541.59
2022-12-19T22:38:46.025Z,102543.84
2022-12-19T22:41:13.908Z,102547.34
2022-12-19T22:43:41.689Z,102535.75
2022-12-19T22:46:26.304Z,102541.38
2022-12-19T22:48:57.023Z,102539.13
2022-12-19T22:51:25.005Z,102534.13
2022-12-19T22:53:52.698Z,102541.13
2022-12-19T22:56:23.078Z,102532.81
2022-12-19T22:58:52.221Z,102535.75
2022-12-19T23:01:28.839Z,102531.63
2022-12-19T23:03:58.367Z,102543.38
2022-12-19T23:06:28.323Z,102530.34
2022-12-19T23:08:55.860Z,102532.94
2022-12-19T23:11:30.495Z,102528.94
2022-12-19T23:14:00.879Z,102524.16
2022-12-19T23:16:29.611Z,102538.44
2022-12-19T23:18:57.483Z,102536.31
2022-12-19T23:21:25.922Z,102534.94
2022-12-19T23:23:54.943Z,102531.63
2022-12-19T23:26:28.664Z,102532.47
2022-12-19T23:28:58.740Z,102526.25
2022-12-19T23:31:27.306Z,102521.91
2022-12-19T23:33:55.596Z,102522.72
2022-12-19T23:36:52.705Z,102524.41
2022-12-19T23:39:12.134Z,102516.75
2022-12-19T23:41:39.662Z,102520.97
2022-12-19T23:44:08.296Z,102521.09
2022-12-19T23:46:36.108Z,102526.97
2022-12-19T23:49:03.968Z,102517.47
2022-12-19T23:51:31.361Z,102526.38
2022-12-19T23:53:58.690Z,102519.00
2022-12-19T23:56:30.234Z,102514.19
2022-12-19T23:59:00.890Z,102518.53
